createdAt,value
2022-08-04T00:01:37.843Z,26.00
2022-08-04T00:04:33.162Z,25.96
2022-08-04T00:07:13.259Z,25.91
2022-08-04T00:10:07.044Z,25.89
2022-08-04T00:12:39.692Z,25.87
2022-08-04T00:15:10.459Z,25.90
2022-08-04T00:17:46.961Z,25.97
2022-08-04T00:20:18.876Z,26.01
2022-08-04T00:22:47.598Z,26.02
2022-08-04T00:25:15.025Z,25.99
2022-08-04T00:27:41.799Z,25.94
2022-08-04T00:30:09.132Z,25.89
2022-08-04T00:32:35.997Z,25.84
2022-08-04T00:35:03.042Z,25.86
2022-08-04T00:37:30.363Z,25.81
2022-08-04T00:39:57.731Z,25.82
2022-08-04T00:42:34.540Z,25.82
2022-08-04T00:45:24.228Z,25.81
2022-08-04T00:48:04.548Z,25.80
2022-08-04T00:50:45.752Z,25.80
2022-08-04T00:53:18.290Z,25.77
2022-08-04T00:56:12.899Z,25.74
2022-08-04T00:58:47.662Z,25.71
2022-08-04T01:01:29.837Z,25.66
2022-08-04T01:04:22.098Z,25.62
2022-08-04T01:06:56.219Z,25.64
2022-08-04T01:09:33.804Z,25.59
2022-08-04T01:12:37.448Z,25.56
2022-08-04T01:15:04.664Z,25.56
2022-08-04T01:17:41.899Z,25.55
2022-08-04T01:20:10.407Z,25.57
2022-08-04T01:23:07.790Z,25.53
2022-08-04T01:25:59.431Z,25.49
2022-08-04T01:28:49.633Z,25.42
2022-08-04T01:31:50.587Z,25.31
2022-08-04T01:34:20.521Z,25.30
2022-08-04T01:36:57.878Z,25.27
2022-08-04T01:39:41.980Z,25.29
2022-08-04T01:42:11.068Z,25.28
2022-08-04T01:44:41.247Z,25.29
2022-08-04T01:47:09.407Z,25.23
2022-08-04T01:49:40.573Z,25.20
2022-08-04T01:52:09.331Z,25.22
2022-08-04T01:54:39.471Z,25.26
2022-08-04T01:57:45.967Z,25.30
2022-08-04T01:59:56.375Z,25.29
2022-08-04T02:02:24.480Z,25.26
2022-08-04T02:04:51.482Z,25.21
2022-08-04T02:07:36.721Z,25.20
2022-08-04T02:10:25.630Z,25.17
2022-08-04T02:13:07.308Z,25.16
2022-08-04T02:15:45.384Z,25.15
2022-08-04T02:18:12.094Z,25.16
2022-08-04T02:20:43.517Z,25.18
2022-08-04T02:23:15.699Z,25.16
2022-08-04T02:26:00.793Z,25.19
2022-08-04T02:28:35.405Z,25.18
2022-08-04T02:31:11.890Z,25.13
2022-08-04T02:33:42.759Z,25.09
2022-08-04T02:36:34.767Z,25.13
2022-08-04T02:39:04.359Z,25.11
2022-08-04T02:41:32.072Z,25.11
2022-08-04T02:44:01.397Z,25.13
2022-08-04T02:46:29.445Z,25.12
2022-08-04T02:48:56.747Z,25.11
2022-08-04T02:51:29.850Z,25.05
2022-08-04T02:54:00.124Z,25.04
2022-08-04T02:56:30.168Z,25.05
2022-08-04T02:59:04.169Z,25.04
2022-08-04T03:01:31.740Z,25.01
2022-08-04T03:04:24.539Z,25.00
2022-08-04T03:07:14.452Z,25.02
2022-08-04T03:09:42.405Z,25.00
2022-08-04T03:12:39.434Z,25.00
2022-08-04T03:15:15.128Z,24.97
2022-08-04T03:17:53.698Z,24.98
2022-08-04T03:20:38.684Z,24.96
2022-08-04T03:23:24.242Z,24.97
2022-08-04T03:25:55.844Z,24.99
2022-08-04T03:29:00.606Z,24.95
2022-08-04T03:31:33.147Z,24.92
2022-08-04T03:34:21.783Z,24.98
2022-08-04T03:37:26.235Z,24.96
2022-08-04T03:40:08.783Z,24.95
2022-08-04T03:42:55.615Z,24.93
2022-08-04T03:45:34.491Z,24.89
2022-08-04T03:48:39.942Z,24.90
2022-08-04T03:51:46.845Z,24.85
2022-08-04T03:54:44.464Z,24.81
2022-08-04T03:57:43.565Z,24.81
2022-08-04T04:00:19.725Z,24.77
2022-08-04T04:03:28.243Z,24.78
2022-08-04T04:06:20.765Z,24.83
2022-08-04T04:08:55.467Z,24.85
2022-08-04T04:11:56.413Z,24.83
2022-08-04T04:14:30.738Z,24.83
2022-08-04T04:17:31.612Z,24.80
2022-08-04T04:20:17.677Z,24.82
2022-08-04T04:23:10.384Z,24.80
2022-08-04T04:25:55.628Z,24.80
2022-08-04T04:28:43.634Z,24.78
2022-08-04T04:31:30.976Z,24.79
2022-08-04T04:34:06.549Z,24.82
2022-08-04T04:36:59.758Z,24.89
2022-08-04T04:39:37.221Z,24.90
2022-08-04T04:42:19.099Z,24.90
2022-08-04T04:45:04.747Z,24.86
2022-08-04T04:48:08.799Z,24.86
2022-08-04T04:50:49.905Z,24.86
2022-08-04T04:53:38.505Z,24.85
2022-08-04T04:56:20.461Z,24.88
2022-08-04T04:58:48.146Z,24.91
2022-08-04T05:02:07.515Z,24.93
2022-08-04T05:05:07.665Z,24.94
2022-08-04T05:08:44.643Z,24.96
2022-08-04T05:11:10.912Z,25.00
2022-08-04T05:14:37.280Z,25.01
2022-08-04T05:16:43.389Z,25.09
2022-08-04T05:19:22.930Z,25.11
2022-08-04T05:22:18.653Z,25.15
2022-08-04T05:24:49.257Z,25.18
2022-08-04T05:27:20.800Z,25.22
2022-08-04T05:29:54.846Z,25.31
2022-08-04T05:32:26.665Z,25.37
2022-08-04T05:34:59.794Z,25.42
2022-08-04T05:37:28.364Z,25.44
2022-08-04T05:39:58.525Z,25.44
2022-08-04T05:42:27.425Z,25.54
2022-08-04T05:44:55.930Z,25.56
2022-08-04T05:47:24.405Z,25.63
2022-08-04T05:50:01.519Z,25.70
2022-08-04T05:52:32.028Z,25.75
2022-08-04T05:55:00.673Z,25.82
2022-08-04T05:57:28.661Z,25.89
2022-08-04T05:59:57.593Z,25.91
2022-08-04T06:02:25.473Z,25.92
2022-08-04T06:04:53.492Z,25.96
2022-08-04T06:07:20.697Z,26.01
2022-08-04T06:09:47.674Z,26.05
2022-08-04T06:12:21.073Z,26.12
2022-08-04T06:14:50.732Z,26.18
2022-08-04T06:18:35.217Z,26.26
2022-08-04T06:20:18.962Z,26.32
2022-08-04T06:22:58.772Z,26.45
2022-08-04T06:25:30.037Z,26.59
2022-08-04T06:27:58.248Z,26.69
2022-08-04T06:30:27.689Z,26.77
2022-08-04T06:33:04.013Z,26.85
2022-08-04T06:35:33.795Z,26.92
2022-08-04T06:38:02.103Z,27.02
2022-08-04T06:40:33.341Z,27.07
2022-08-04T06:43:03.315Z,27.16
2022-08-04T06:45:31.814Z,27.29
2022-08-04T06:48:01.026Z,27.48
2022-08-04T06:51:25.420Z,27.62
2022-08-04T06:53:16.108Z,27.78
2022-08-04T06:55:45.530Z,27.91
2022-08-04T06:58:13.380Z,28.08
2022-08-04T07:00:42.921Z,28.26
2022-08-04T07:03:11.579Z,28.48
2022-08-04T07:05:39.655Z,28.60
2022-08-04T07:08:08.060Z,28.76
2022-08-04T07:10:35.523Z,28.98
2022-08-04T07:13:03.152Z,29.08
2022-08-04T07:15:30.388Z,29.15
2022-08-04T07:18:00.326Z,29.23
2022-08-04T07:20:34.231Z,29.36
2022-08-04T07:23:06.387Z,29.51
2022-08-04T07:25:59.531Z,29.66
2022-08-04T07:28:28.327Z,29.86
2022-08-04T07:30:57.633Z,29.93
2022-08-04T07:33:25.952Z,30.06
2022-08-04T07:36:04.795Z,30.18
2022-08-04T07:38:48.614Z,30.34
2022-08-04T07:41:36.253Z,30.45
2022-08-04T07:44:04.298Z,30.72
2022-08-04T07:46:31.759Z,30.94
2022-08-04T07:49:00.829Z,31.10
2022-08-04T07:51:28.838Z,31.21
2022-08-04T07:53:57.437Z,31.40
2022-08-04T07:56:26.221Z,31.51
2022-08-04T07:58:53.041Z,31.76
2022-08-04T08:01:20.232Z,32.04
2022-08-04T08:03:48.042Z,32.16
2022-08-04T08:06:30.672Z,32.36
2022-08-04T08:09:01.986Z,32.60
2022-08-04T08:12:36.346Z,32.67
2022-08-04T08:14:28.492Z,32.89
2022-08-04T08:16:55.432Z,33.00
2022-08-04T08:19:22.114Z,33.00
2022-08-04T08:21:59.768Z,33.16
2022-08-04T08:24:32.207Z,33.06
2022-08-04T08:27:00.541Z,32.93
2022-08-04T08:29:29.585Z,33.08
2022-08-04T08:32:01.456Z,33.36
2022-08-04T08:34:33.052Z,33.73
2022-08-04T08:37:10.011Z,34.11
2022-08-04T08:39:53.029Z,34.31
2022-08-04T08:42:43.185Z,34.40
2022-08-04T08:45:34.637Z,34.73
2022-08-04T08:48:19.793Z,35.07
2022-08-04T08:51:28.717Z,35.26
2022-08-04T08:54:19.598Z,35.26
2022-08-04T08:56:52.224Z,35.06
2022-08-04T08:59:56.497Z,35.21
2022-08-04T09:02:48.017Z,35.35
2022-08-04T09:05:57.799Z,35.55
2022-08-04T09:08:45.728Z,35.79
2022-08-04T09:11:16.768Z,35.94
2022-08-04T09:13:50.298Z,36.08
2022-08-04T09:16:47.437Z,36.27
2022-08-04T09:19:37.687Z,36.55
2022-08-04T09:22:16.367Z,36.84
2022-08-04T09:24:50.850Z,37.01
2022-08-04T09:27:30.918Z,37.00
2022-08-04T09:30:10.312Z,36.86
2022-08-04T09:32:41.442Z,36.97
2022-08-04T09:35:16.685Z,36.94
2022-08-04T09:37:52.459Z,36.88
2022-08-04T09:40:53.808Z,37.14
2022-08-04T09:43:58.760Z,37.20
2022-08-04T09:46:23.440Z,37.39
2022-08-04T09:49:02.244Z,37.37
2022-08-04T09:51:58.603Z,37.31
2022-08-04T09:54:56.921Z,37.28
2022-08-04T09:57:53.587Z,36.77
2022-08-04T10:00:20.925Z,36.62
2022-08-04T10:03:14.761Z,36.45
2022-08-04T10:06:03.151Z,36.46
2022-08-04T10:09:04.426Z,36.52
2022-08-04T10:12:08.101Z,36.58
2022-08-04T10:14:47.866Z,36.80
2022-08-04T10:17:26.168Z,36.98
2022-08-04T10:20:36.445Z,37.29
2022-08-04T10:23:23.796Z,37.56
2022-08-04T10:26:20.866Z,37.62
2022-08-04T10:28:56.089Z,37.85
2022-08-04T10:31:36.737Z,37.87
2022-08-04T10:34:13.098Z,38.12
2022-08-04T10:37:05.583Z,38.24
2022-08-04T10:40:03.774Z,38.16
2022-08-04T10:42:32.011Z,37.71
2022-08-04T10:45:17.137Z,37.46
2022-08-04T10:48:07.445Z,37.37
2022-08-04T10:50:42.631Z,37.42
2022-08-04T10:53:22.874Z,37.72
2022-08-04T10:56:07.651Z,37.99
2022-08-04T10:58:47.095Z,37.76
2022-08-04T11:02:00.007Z,37.33
2022-08-04T11:04:30.676Z,36.83
2022-08-04T11:07:00.305Z,36.47
2022-08-04T11:09:29.181Z,36.06
2022-08-04T11:12:03.753Z,35.79
2022-08-04T11:14:42.071Z,35.76
2022-08-04T11:17:14.811Z,36.15
2022-08-04T11:20:32.258Z,36.54
2022-08-04T11:23:03.110Z,36.97
2022-08-04T11:25:47.281Z,37.45
2022-08-04T11:28:35.772Z,37.87
2022-08-04T11:31:11.225Z,38.09
2022-08-04T11:33:59.291Z,38.28
2022-08-04T11:36:41.891Z,38.38
2022-08-04T11:39:15.864Z,38.26
2022-08-04T11:41:51.478Z,38.37
2022-08-04T11:44:31.977Z,38.34
2022-08-04T11:47:08.132Z,38.23
2022-08-04T11:49:56.006Z,38.38
2022-08-04T11:52:26.240Z,38.17
2022-08-04T11:54:55.664Z,38.33
2022-08-04T11:57:25.707Z,38.33
2022-08-04T12:00:23.555Z,38.42
2022-08-04T12:03:21.865Z,38.39
2022-08-04T12:05:54.350Z,38.48
2022-08-04T12:08:21.175Z,38.50
2022-08-04T12:11:01.929Z,38.75
2022-08-04T12:13:34.674Z,38.86
2022-08-04T12:16:15.301Z,39.15
2022-08-04T12:18:57.585Z,39.17
2022-08-04T12:21:53.017Z,39.27
2022-08-04T12:24:31.169Z,39.30
2022-08-04T12:27:02.823Z,39.29
2022-08-04T12:29:33.622Z,39.01
2022-08-04T12:32:11.907Z,38.69
2022-08-04T12:34:43.598Z,38.72
2022-08-04T12:37:26.846Z,38.75
2022-08-04T12:40:27.258Z,38.68
2022-08-04T12:42:56.035Z,38.70
2022-08-04T12:45:27.110Z,38.64
2022-08-04T12:47:58.022Z,38.41
2022-08-04T12:50:25.882Z,38.34
2022-08-04T12:53:02.470Z,37.95
2022-08-04T12:55:31.992Z,37.86
2022-08-04T12:58:01.724Z,37.68
2022-08-04T13:00:41.809Z,37.63
2022-08-04T13:03:12.329Z,37.44
2022-08-04T13:05:42.898Z,37.36
2022-08-04T13:08:13.805Z,37.14
2022-08-04T13:10:44.555Z,36.92
2022-08-04T13:13:19.239Z,36.87
2022-08-04T13:15:58.231Z,36.75
2022-08-04T13:18:30.435Z,36.76
2022-08-04T13:21:19.967Z,36.69
2022-08-04T13:24:10.880Z,36.63
2022-08-04T13:26:54.730Z,36.65
2022-08-04T13:29:58.745Z,36.65
2022-08-04T13:32:17.750Z,36.73
2022-08-04T13:34:49.079Z,36.82
2022-08-04T13:37:25.293Z,36.80
2022-08-04T13:39:55.830Z,36.83
2022-08-04T13:42:25.823Z,36.82
2022-08-04T13:44:59.869Z,36.72
2022-08-04T13:47:34.175Z,36.66
2022-08-04T13:50:23.482Z,36.62
2022-08-04T13:52:53.270Z,36.56
2022-08-04T13:55:36.532Z,36.56
2022-08-04T13:58:14.314Z,36.57
2022-08-04T14:01:00.521Z,36.60
2022-08-04T14:03:53.962Z,36.42
2022-08-04T14:06:24.515Z,36.25
2022-08-04T14:09:15.472Z,36.31
2022-08-04T14:12:06.901Z,36.43
2022-08-04T14:14:34.667Z,36.34
2022-08-04T14:17:19.722Z,36.18
2022-08-04T14:19:49.930Z,36.11
2022-08-04T14:22:31.141Z,36.13
2022-08-04T14:25:15.430Z,36.15
2022-08-04T14:27:51.281Z,36.13
2022-08-04T14:30:24.985Z,36.16
2022-08-04T14:32:56.385Z,36.16
2022-08-04T14:35:26.459Z,36.06
2022-08-04T14:38:06.166Z,36.00
2022-08-04T14:40:35.428Z,35.98
2022-08-04T14:43:07.579Z,35.94
2022-08-04T14:45:54.776Z,35.95
2022-08-04T14:48:23.006Z,35.94
2022-08-04T14:50:50.934Z,36.03
2022-08-04T14:53:18.684Z,36.10
2022-08-04T14:55:55.289Z,36.06
2022-08-04T14:58:32.645Z,35.99
2022-08-04T15:01:10.502Z,35.96
2022-08-04T15:03:52.275Z,35.99
2022-08-04T15:06:30.697Z,36.02
2022-08-04T15:09:01.183Z,36.06
2022-08-04T15:11:28.297Z,36.05
2022-08-04T15:13:56.644Z,35.97
2022-08-04T15:16:25.083Z,35.97
2022-08-04T15:18:54.925Z,36.02
2022-08-04T15:21:25.942Z,35.98
2022-08-04T15:23:52.838Z,35.96
2022-08-04T15:26:28.948Z,35.95
2022-08-04T15:29:01.920Z,35.74
2022-08-04T15:32:04.113Z,35.70
2022-08-04T15:34:16.862Z,35.66
2022-08-04T15:36:58.004Z,35.61
2022-08-04T15:39:36.142Z,35.58
2022-08-04T15:42:23.317Z,35.57
2022-08-04T15:45:22.333Z,35.58
2022-08-04T15:48:02.685Z,35.60
2022-08-04T15:50:30.208Z,35.61
2022-08-04T15:53:01.245Z,35.61
2022-08-04T15:55:39.886Z,35.58
2022-08-04T15:58:14.779Z,35.51
2022-08-04T16:00:50.569Z,35.43
2022-08-04T16:03:58.181Z,35.36
2022-08-04T16:06:29.525Z,35.33
2022-08-04T16:09:05.073Z,35.37
2022-08-04T16:11:40.200Z,35.33
2022-08-04T16:14:10.947Z,35.28
2022-08-04T16:16:41.156Z,35.21
2022-08-04T16:19:09.191Z,35.11
2022-08-04T16:21:52.464Z,35.03
2022-08-04T16:24:29.191Z,35.01
2022-08-04T16:26:57.904Z,34.93
2022-08-04T16:29:41.987Z,34.79
2022-08-04T16:32:21.632Z,34.71
2022-08-04T16:35:05.193Z,34.74
2022-08-04T16:37:37.887Z,34.78
2022-08-04T16:40:23.676Z,34.80
2022-08-04T16:42:50.786Z,34.76
2022-08-04T16:45:19.563Z,34.74
2022-08-04T16:47:49.511Z,34.63
2022-08-04T16:50:17.003Z,34.56
2022-08-04T16:52:46.496Z,34.55
2022-08-04T16:55:18.720Z,34.53
2022-08-04T16:57:58.999Z,34.49
2022-08-04T17:00:37.026Z,34.40
2022-08-04T17:03:10.360Z,34.30
2022-08-04T17:05:40.110Z,34.22
2022-08-04T17:10:56.191Z,34.10
2022-08-04T17:14:03.975Z,33.98
2022-08-04T17:16:21.412Z,33.89
2022-08-04T17:19:25.052Z,33.94
2022-08-04T17:22:10.511Z,33.91
2022-08-04T17:24:40.679Z,33.86
2022-08-04T17:28:20.196Z,33.80
2022-08-04T17:29:55.320Z,33.80
2022-08-04T17:32:23.001Z,33.78
2022-08-04T17:34:51.986Z,33.76
2022-08-04T17:37:39.868Z,33.72
2022-08-04T17:40:22.536Z,33.67
2022-08-04T17:44:04.105Z,33.58
2022-08-04T17:46:29.533Z,33.47
2022-08-04T17:48:59.767Z,33.31
2022-08-04T17:52:04.767Z,33.20
2022-08-04T17:54:37.293Z,33.13
2022-08-04T17:57:21.926Z,33.07
2022-08-04T17:59:58.932Z,33.00
2022-08-04T18:02:33.048Z,32.94
2022-08-04T18:05:06.197Z,32.85
2022-08-04T18:08:42.843Z,32.77
2022-08-04T18:10:52.447Z,32.75
2022-08-04T18:13:24.988Z,32.70
2022-08-04T18:16:02.481Z,32.60
2022-08-04T18:18:29.800Z,32.48
2022-08-04T18:20:56.701Z,32.40
2022-08-04T18:23:31.756Z,32.31
2022-08-04T18:25:59.096Z,32.25
2022-08-04T18:28:28.689Z,32.17
2022-08-04T18:30:57.735Z,32.09
2022-08-04T18:36:35.386Z,31.95
2022-08-04T18:39:12.576Z,31.88
2022-08-04T18:42:00.829Z,31.80
2022-08-04T18:44:31.538Z,31.65
2022-08-04T18:47:19.288Z,31.51
2022-08-04T18:50:59.274Z,31.39
2022-08-04T18:52:33.597Z,31.29
2022-08-04T18:55:01.819Z,31.19
2022-08-04T18:57:58.553Z,31.09
2022-08-04T19:00:19.881Z,31.00
2022-08-04T19:02:47.505Z,30.91
2022-08-04T19:05:17.334Z,30.85
2022-08-04T19:08:02.212Z,30.81
2022-08-04T19:10:31.786Z,30.73
2022-08-04T19:12:59.570Z,30.69
2022-08-04T19:15:34.637Z,30.67
2022-08-04T19:18:02.456Z,30.60
2022-08-04T19:20:33.898Z,30.53
2022-08-04T19:24:26.259Z,30.44
2022-08-04T19:26:01.312Z,30.36
2022-08-04T19:28:34.404Z,30.27
2022-08-04T19:31:11.487Z,30.23
2022-08-04T19:33:58.682Z,30.21
2022-08-04T19:36:33.130Z,30.17
2022-08-04T19:39:03.248Z,30.15
2022-08-04T19:41:31.993Z,30.09
2022-08-04T19:43:58.690Z,30.04
2022-08-04T19:46:28.622Z,29.98
2022-08-04T19:49:00.466Z,29.88
2022-08-04T19:51:29.907Z,29.81
2022-08-04T19:54:04.308Z,29.75
2022-08-04T19:56:40.353Z,29.67
2022-08-04T19:59:10.319Z,29.64
2022-08-04T20:01:44.681Z,29.61
2022-08-04T20:04:12.658Z,29.57
2022-08-04T20:06:39.655Z,29.55
2022-08-04T20:09:24.587Z,29.54
2022-08-04T20:11:51.986Z,29.54
2022-08-04T20:14:31.259Z,29.51
2022-08-04T20:17:01.120Z,29.45
2022-08-04T20:19:27.757Z,29.46
2022-08-04T20:21:57.167Z,29.44
2022-08-04T20:24:39.429Z,29.39
2022-08-04T20:27:15.923Z,29.40
2022-08-04T20:29:46.087Z,29.35
2022-08-04T20:32:20.147Z,29.33
2022-08-04T20:34:51.397Z,29.35
2022-08-04T20:37:19.597Z,29.37
2022-08-04T20:39:54.847Z,29.35
2022-08-04T20:42:27.806Z,29.33
2022-08-04T20:45:01.461Z,29.35
2022-08-04T20:47:35.264Z,29.27
2022-08-04T20:50:08.928Z,29.22
2022-08-04T20:52:37.758Z,29.18
2022-08-04T20:55:05.675Z,29.19
2022-08-04T20:57:48.681Z,29.15
2022-08-04T21:00:30.229Z,29.11
2022-08-04T21:02:59.182Z,29.11
2022-08-04T21:05:26.530Z,29.06
2022-08-04T21:07:56.756Z,29.03
2022-08-04T21:10:26.607Z,28.99
2022-08-04T21:12:54.281Z,28.99
2022-08-04T21:15:25.662Z,28.99
2022-08-04T21:17:56.875Z,29.02
2022-08-04T21:20:29.633Z,28.99
2022-08-04T21:23:01.555Z,28.99
2022-08-04T21:25:29.427Z,28.97
2022-08-04T21:27:58.455Z,28.99
2022-08-04T21:30:26.957Z,28.96
2022-08-04T21:32:55.109Z,28.95
2022-08-04T21:35:30.811Z,28.97
2022-08-04T21:38:16.372Z,28.95
2022-08-04T21:40:54.286Z,28.87
2022-08-04T21:43:27.241Z,28.77
2022-08-04T21:45:56.861Z,28.74
2022-08-04T21:48:30.870Z,28.74
2022-08-04T21:50:57.672Z,28.75
2022-08-04T21:53:24.414Z,28.71
2022-08-04T21:56:04.366Z,28.72
2022-08-04T21:58:34.622Z,28.70
2022-08-04T22:01:05.867Z,28.72
2022-08-04T22:06:29.136Z,28.68
2022-08-04T22:08:57.290Z,28.65
2022-08-04T22:11:48.192Z,28.63
2022-08-04T22:14:17.667Z,28.58
2022-08-04T22:16:56.487Z,28.59
2022-08-04T22:19:39.704Z,28.56
2022-08-04T22:22:12.555Z,28.55
2022-08-04T22:24:40.649Z,28.48
2022-08-04T22:27:11.282Z,28.45
2022-08-04T22:29:39.212Z,28.39
2022-08-04T22:32:11.203Z,28.37
2022-08-04T22:34:45.388Z,28.29
2022-08-04T22:37:12.757Z,28.30
2022-08-04T22:39:56.189Z,28.30
2022-08-04T22:42:24.050Z,28.23
2022-08-04T22:44:50.825Z,28.15
2022-08-04T22:47:20.589Z,28.14
2022-08-04T22:49:56.487Z,28.09
2022-08-04T22:52:37.518Z,28.11
2022-08-04T22:55:22.797Z,28.11
2022-08-04T22:58:04.979Z,28.09
2022-08-04T23:00:36.146Z,28.05
2022-08-04T23:03:06.866Z,28.04
2022-08-04T23:05:37.966Z,28.08
2022-08-04T23:08:05.409Z,28.03
2022-08-04T23:10:33.076Z,28.02
2022-08-04T23:13:04.239Z,27.99
2022-08-04T23:15:33.688Z,28.04
2022-08-04T23:18:00.792Z,28.00
2022-08-04T23:20:32.973Z,28.00
2022-08-04T23:23:14.675Z,28.01
2022-08-04T23:26:07.683Z,27.98
2022-08-04T23:28:31.331Z,27.94
2022-08-04T23:30:58.046Z,27.89
2022-08-04T23:33:24.797Z,27.90
2022-08-04T23:36:11.858Z,27.83
2022-08-04T23:38:39.225Z,27.88
2022-08-04T23:41:17.253Z,27.89
2022-08-04T23:43:55.521Z,27.90
2022-08-04T23:46:23.086Z,27.87
2022-08-04T23:48:49.711Z,27.92
2022-08-04T23:51:16.595Z,27.89
2022-08-04T23:54:02.066Z,27.89
2022-08-04T23:56:32.110Z,27.90
2022-08-04T23:59:00.252Z,27.86
